Página principal
METAR-TAF:

METAR-TAF

Aeroportos :

Aeroporto Internacional de Wattay

Vientiane, Laos

latitude: 17-57N, longitude: 102-34E, altura: 171 m

Observação actual do tempo

O boletim foi feito há 6 horas e 22 minutos, às 16:30 UTC
Vento 6 kt de este
Temperatura 22°C
Humidade 65%
Pressão 1019 hPa
Visibilidade: 3000 m
Poucas nuvensa uma altura de 5000 ft
neblina

METAR: VLVT 161630Z 09006KT 3000 BR FEW050 22/15 Q1019 NOSIG

Hora: 05:52 (22:52 UTC)

Previsão

O boletim foi feito há 5 horas e 52 minutos, às 17:00 UTC
Previsão válida de 16 às 18 UTC a 17 às 18 UTC
Vento 4 kt de es-nordeste
Visibilidade: 8000 m
Poucas nuvensa uma altura de 2000 ft
Poucas nuvensa uma altura de 20000 ft
Temporariamente
de 16 às 18 UTC a 16 às 22 UTC
Visibilidade: 3000 m
Nuvens dispersasa uma altura de 5000 ft
Poucas nuvensa uma altura de 10000 ft

TAF: VLVT 161700Z 1618/1718 06004KT 8000 FEW020 FEW200 TEMPO 1618/1622 3000 SCT050 FEW100

Observações e previsões do tempo de mais de 4000 aeroportos (mensagens METAR e TAF).

As estações disponíveis são os pontos amarelos e vermelhos sobre o mapa.

Mova o rato sobre o mapa para ver o nome da estação.

Depois clique no ponto para visualizar as observações e previsões meteorológicas.

Para alterar o mapa : clique nos botões verdes com uma cruz preta para aumentar o zoom; no botão verde com uma pitada de zoom; ou nas setas verdes para mapas adjacentes.


METAR-TAF: